createdAt,value
2022-11-24T00:01:44.712Z,21.60
2022-11-24T00:06:47.506Z,20.00
2022-11-24T00:11:51.580Z,19.37
2022-11-24T00:16:54.373Z,19.93
2022-11-24T00:21:57.157Z,19.07
2022-11-24T00:27:01.234Z,18.50
2022-11-24T00:32:06.441Z,20.00
2022-11-24T00:37:09.195Z,20.10
2022-11-24T00:42:14.204Z,19.63
2022-11-24T00:47:17.079Z,18.33
2022-11-24T00:52:19.833Z,18.90
2022-11-24T00:57:23.881Z,19.90
2022-11-24T01:02:27.403Z,18.13
2022-11-24T01:07:30.292Z,18.17
2022-11-24T01:12:35.985Z,16.53
2022-11-24T01:17:38.805Z,17.60
2022-11-24T01:22:42.293Z,17.93
2022-11-24T01:27:46.417Z,18.00
2022-11-24T01:32:49.195Z,17.80
2022-11-24T01:37:51.986Z,18.80
2022-11-24T01:42:56.050Z,19.03
2022-11-24T01:47:59.071Z,18.50
2022-11-24T01:53:01.952Z,17.00
2022-11-24T01:58:08.791Z,15.90
2022-11-24T02:03:15.361Z,16.20
2022-11-24T02:08:31.748Z,15.23
2022-11-24T02:13:38.801Z,16.07
2022-11-24T02:18:42.905Z,16.20
2022-11-24T02:23:55.876Z,16.77
2022-11-24T02:29:00.515Z,16.00
2022-11-24T02:34:03.286Z,15.63
2022-11-24T02:39:07.067Z,14.43
2022-11-24T02:44:11.754Z,15.67
2022-11-24T02:49:15.601Z,16.10
2022-11-24T02:54:18.369Z,15.47
2022-11-24T02:59:22.521Z,16.33
2022-11-24T03:04:25.262Z,15.73
2022-11-24T03:09:28.289Z,15.80
2022-11-24T03:14:32.786Z,15.47
2022-11-24T03:19:35.701Z,14.27
2022-11-24T03:24:38.436Z,15.17
2022-11-24T03:29:42.539Z,16.57
2022-11-24T03:34:45.307Z,17.07
2022-11-24T03:39:48.063Z,16.20
2022-11-24T03:44:52.162Z,17.43
2022-11-24T03:49:54.897Z,16.07
2022-11-24T03:54:57.648Z,18.17
2022-11-24T04:00:01.703Z,17.77
2022-11-24T04:05:04.675Z,18.07
2022-11-24T04:10:08.477Z,17.30
2022-11-24T04:15:14.032Z,17.90
2022-11-24T04:20:17.806Z,18.83
2022-11-24T04:25:20.666Z,17.37
2022-11-24T04:30:26.038Z,18.57
2022-11-24T04:35:28.836Z,17.10
2022-11-24T04:40:31.578Z,18.07
2022-11-24T04:45:35.700Z,17.80
2022-11-24T04:50:39.806Z,18.23
2022-11-24T04:55:42.546Z,18.57
2022-11-24T05:00:46.575Z,17.63
2022-11-24T05:05:49.317Z,18.87
2022-11-24T05:10:52.092Z,19.80
2022-11-24T05:15:57.152Z,26.97
2022-11-24T05:21:00.152Z,19.97
2022-11-24T05:26:03.607Z,19.23
2022-11-24T05:31:07.764Z,17.70
2022-11-24T05:36:32.007Z,18.17
2022-11-24T05:41:34.768Z,18.87
2022-11-24T05:46:39.247Z,18.73
2022-11-24T05:51:42.081Z,19.67
2022-11-24T05:56:44.834Z,18.77
2022-11-24T06:01:49.111Z,18.93
2022-11-24T06:06:51.952Z,18.90
2022-11-24T06:11:54.740Z,19.70
2022-11-24T06:16:58.851Z,20.13
2022-11-24T06:22:01.858Z,19.20
2022-11-24T06:27:04.613Z,19.03
2022-11-24T06:32:09.130Z,19.00
2022-11-24T06:37:12.351Z,17.60
2022-11-24T06:42:18.734Z,18.97
2022-11-24T06:47:22.824Z,19.53
2022-11-24T06:52:25.562Z,21.40
2022-11-24T06:57:29.537Z,19.33
2022-11-24T07:02:33.721Z,18.00
2022-11-24T07:07:36.532Z,22.20
2022-11-24T07:12:39.379Z,21.03
2022-11-24T07:17:43.495Z,21.70
2022-11-24T07:22:46.241Z,21.37
2022-11-24T07:27:48.977Z,20.73
2022-11-24T07:32:53.339Z,20.73
2022-11-24T07:37:56.656Z,20.83
2022-11-24T07:43:03.286Z,19.83
2022-11-24T07:48:10.191Z,19.47
2022-11-24T07:53:12.932Z,19.80
2022-11-24T07:58:18.286Z,19.47
2022-11-24T08:03:22.776Z,20.33
2022-11-24T08:08:25.798Z,19.30
2022-11-24T08:13:28.570Z,19.07
2022-11-24T08:18:32.635Z,19.60
2022-11-24T08:23:35.875Z,19.03
2022-11-24T08:28:38.949Z,18.23
2022-11-24T08:33:43.662Z,17.87
2022-11-24T08:38:47.104Z,17.77
2022-11-24T08:43:49.954Z,16.27
2022-11-24T08:48:55.814Z,16.87
2022-11-24T08:53:59.832Z,18.70
2022-11-24T08:59:03.219Z,16.90
2022-11-24T09:04:07.558Z,15.57
2022-11-24T09:09:12.845Z,16.80
2022-11-24T09:14:15.693Z,17.37
2022-11-24T09:19:19.784Z,17.30
2022-11-24T09:24:22.726Z,15.67
2022-11-24T09:29:25.653Z,16.63
2022-11-24T09:34:29.961Z,16.40
2022-11-24T09:39:33.043Z,16.37
2022-11-24T09:44:52.088Z,16.73
2022-11-24T09:50:01.559Z,17.30
2022-11-24T09:55:12.446Z,16.10
2022-11-24T10:00:16.170Z,15.47
2022-11-24T10:05:21.081Z,14.90
2022-11-24T10:10:30.732Z,15.73
2022-11-24T10:15:46.095Z,15.70
2022-11-24T10:27:11.759Z,25.20
2022-11-24T10:32:19.615Z,16.60
2022-11-24T10:37:29.475Z,15.83
2022-11-24T10:42:35.184Z,14.43
2022-11-24T10:47:38.341Z,13.87
2022-11-24T10:52:46.117Z,14.07
2022-11-24T10:57:48.875Z,13.83
2022-11-24T11:03:11.062Z,13.87
2022-11-24T11:08:26.806Z,14.93
2022-11-24T11:13:31.294Z,16.33
2022-11-24T11:18:34.891Z,15.53
2022-11-24T11:23:40.056Z,14.60
2022-11-24T11:28:42.816Z,16.37
2022-11-24T11:34:05.336Z,14.33
2022-11-24T11:39:23.813Z,15.00
2022-11-24T11:44:35.615Z,14.57
2022-11-24T11:49:40.270Z,15.03
2022-11-24T11:55:06.063Z,14.13
2022-11-24T12:00:13.813Z,14.90
2022-11-24T12:05:25.908Z,14.97
2022-11-24T12:10:37.989Z,14.83
2022-11-24T12:15:45.348Z,14.73
2022-11-24T12:21:02.052Z,15.20
2022-11-24T12:26:11.851Z,14.07
2022-11-24T12:31:21.732Z,15.17
2022-11-24T12:36:37.968Z,15.33
2022-11-24T12:41:58.639Z,17.10
2022-11-24T12:47:12.439Z,15.40
2022-11-24T12:52:23.535Z,15.20
2022-11-24T12:57:33.753Z,14.37
2022-11-24T13:02:52.447Z,14.90
2022-11-24T13:07:58.612Z,15.60
2022-11-24T13:13:04.799Z,15.27
2022-11-24T13:24:02.972Z,14.60
2022-11-24T13:29:24.453Z,14.90
2022-11-24T13:35:17.594Z,14.77
2022-11-24T13:41:27.026Z,13.90
2022-11-24T13:47:03.555Z,14.87
2022-11-24T13:52:41.262Z,14.37
2022-11-24T13:57:47.292Z,13.63
2022-11-24T14:02:50.861Z,13.60
2022-11-24T14:07:54.497Z,13.97
2022-11-24T14:13:34.153Z,14.73
2022-11-24T14:18:40.304Z,15.40
2022-11-24T14:23:44.947Z,13.50
2022-11-24T14:28:48.513Z,16.27
2022-11-24T14:34:13.856Z,16.07
2022-11-24T14:39:18.398Z,14.70
2022-11-24T14:44:24.918Z,14.80
2022-11-24T14:49:29.272Z,15.87
2022-11-24T14:54:33.060Z,15.60
2022-11-24T14:59:38.185Z,16.27
2022-11-24T15:05:04.775Z,16.37
2022-11-24T15:10:19.353Z,17.60
2022-11-24T15:15:29.669Z,17.37
2022-11-24T15:20:36.026Z,17.40
2022-11-24T15:25:39.174Z,18.57
2022-11-24T15:30:42.105Z,18.00
2022-11-24T15:35:46.678Z,17.90
2022-11-24T15:40:51.772Z,18.30
2022-11-24T15:45:54.761Z,18.33
2022-11-24T15:51:00.046Z,17.13
2022-11-24T15:56:04.686Z,17.90
2022-11-24T16:01:07.667Z,17.97
2022-11-24T16:06:15.021Z,17.33
2022-11-24T16:11:19.622Z,18.63
2022-11-24T16:16:23.561Z,18.93
2022-11-24T16:21:27.844Z,20.70
2022-11-24T16:26:30.544Z,21.17
2022-11-24T16:31:33.541Z,21.50
2022-11-24T16:36:40.119Z,21.57
2022-11-24T16:41:47.463Z,21.70
2022-11-24T16:46:50.248Z,21.43
2022-11-24T16:51:54.358Z,22.60
2022-11-24T16:56:57.151Z,21.77
2022-11-24T17:02:00.346Z,21.90
2022-11-24T17:07:04.477Z,27.50
2022-11-24T17:12:07.470Z,25.67
2022-11-24T17:17:10.382Z,26.43
2022-11-24T17:22:14.637Z,34.27
2022-11-24T17:27:17.702Z,35.23
2022-11-24T17:32:20.607Z,33.53
2022-11-24T17:37:26.937Z,29.67
2022-11-24T17:42:30.092Z,25.40
2022-11-24T17:47:32.882Z,24.03
2022-11-24T17:52:36.984Z,23.37
2022-11-24T17:57:39.712Z,21.23
2022-11-24T18:02:42.476Z,22.53
2022-11-24T18:07:46.799Z,21.60
2022-11-24T18:12:50.043Z,24.03
2022-11-24T18:17:53.316Z,25.23
2022-11-24T18:23:05.543Z,24.93
2022-11-24T18:28:09.204Z,22.67
2022-11-24T18:33:12.083Z,22.27
2022-11-24T18:38:16.220Z,22.33
2022-11-24T18:43:19.034Z,24.53
2022-11-24T18:48:24.150Z,24.70
2022-11-24T18:53:31.736Z,25.43
2022-11-24T18:58:36.525Z,28.17
2022-11-24T19:03:46.585Z,26.40
2022-11-24T19:08:54.812Z,28.53
2022-11-24T19:13:58.936Z,26.30
2022-11-24T19:19:04.427Z,27.53
2022-11-24T19:29:24.503Z,24.67
2022-11-24T19:34:27.373Z,21.13
2022-11-24T19:39:30.123Z,21.73
2022-11-24T19:44:34.465Z,20.77
2022-11-24T19:49:37.449Z,23.53
2022-11-24T19:54:40.521Z,26.03
2022-11-24T19:59:45.945Z,26.13
2022-11-24T20:04:48.890Z,24.60
2022-11-24T20:09:51.653Z,24.97
2022-11-24T20:14:57.056Z,22.27
2022-11-24T20:19:59.973Z,20.80
2022-11-24T20:25:02.839Z,20.50
2022-11-24T20:30:09.041Z,21.40
2022-11-24T20:35:17.852Z,21.53
2022-11-24T20:40:21.665Z,19.93
2022-11-24T20:45:25.822Z,21.30
2022-11-24T20:50:28.653Z,21.53
2022-11-24T20:55:33.473Z,20.87
2022-11-24T21:00:37.675Z,23.07
2022-11-24T21:05:40.550Z,21.87
2022-11-24T21:10:43.355Z,21.20
2022-11-24T21:15:55.891Z,21.93
2022-11-24T21:21:00.412Z,21.27
2022-11-24T21:26:05.672Z,20.60
2022-11-24T21:31:14.011Z,18.90
2022-11-24T21:36:18.815Z,19.37
2022-11-24T21:41:22.485Z,20.23
2022-11-24T21:46:26.715Z,20.23
2022-11-24T21:51:29.987Z,19.37
2022-11-24T21:56:32.797Z,18.90
2022-11-24T22:01:36.972Z,15.97
2022-11-24T22:06:39.745Z,17.30
2022-11-24T22:11:42.540Z,18.43
2022-11-24T22:16:47.039Z,17.13
2022-11-24T22:21:49.988Z,17.37
2022-11-24T22:26:52.744Z,17.37
2022-11-24T22:31:57.596Z,17.17
2022-11-24T22:37:00.486Z,17.10
2022-11-24T22:42:03.244Z,16.63
2022-11-24T22:47:07.354Z,16.90
2022-11-24T22:52:10.109Z,15.77
2022-11-24T22:57:12.887Z,17.07
2022-11-24T23:02:16.918Z,16.40
2022-11-24T23:07:19.752Z,17.27
2022-11-24T23:12:22.668Z,18.33
2022-11-24T23:17:26.830Z,18.20
2022-11-24T23:22:29.601Z,18.10
2022-11-24T23:27:32.346Z,19.00
2022-11-24T23:32:36.503Z,17.50
2022-11-24T23:38:06.084Z,17.37
2022-11-24T23:43:02.924Z,17.97
2022-11-24T23:48:08.465Z,16.57
2022-11-24T23:53:11.747Z,15.67
2022-11-24T23:58:14.482Z,17.57
